x

Port Everglades Channel, Fl (pvgf1) Weather Station

8:00pm - Wed 23rd Jan 2019 All times are EST. -5 hours from GMT.

  • Wind
    16mph, 23mph gusts
  • Air Temp 75°f
  • Sea Pressure 1018.8mb
  • Port Everglades Channel, Fl
  • Port Everglades Channel, Fl

More Historic Weather Station data

Upgrade to MSW Pro to gain access to the past 30 days of data for over 8000 Wavebouys and Weather Stations around the globe.

Join

Comparision Forecast

View Surf forecast
   
Wed 01/23 8:00pm 16 23 mph 1018.8mb 75f
7:54pm 16 21 mph 1018.7mb 75f
7:48pm 16 23 mph 1018.8mb 75f
7:42pm 17 24 mph 1018.7mb 75f
7:36pm 20 25 mph 1018.7mb 75f
7:30pm 20 25 mph 1018.6mb 74f
7:24pm 17 22 mph 1018.7mb 75f
7:18pm 17 24 mph 1018.7mb 75f
7:12pm 18 25 mph 1018.8mb 74f
7:06pm 17 24 mph 1018.8mb 74f
7:00pm 17 23 mph 1018.7mb 74f
6:42pm 16 22 mph 1019mb 74f
6:36pm 16 20 mph 1019mb 74f
6:30pm 15 21 mph 1019mb 74f
6:24pm 15 21 mph 1019.1mb 74f
6:18pm 16 22 mph 1019.1mb 74f
6:12pm 14 22 mph 1019.1mb 74f
6:06pm 14 22 mph 1019.2mb 74f
6:00pm 15 21 mph 1019.2mb 74f
5:54pm 15 20 mph 1019.2mb 74f
5:48pm 13 18 mph 1019.4mb 74f
5:42pm 14 20 mph 1019.4mb 74f
5:36pm 15 22 mph 1019.5mb 74f
5:30pm 14 21 mph 1019.4mb 74f
5:24pm 13 18 mph 1019.5mb 74f
5:18pm 13 17 mph 1019.6mb 74f
5:12pm 14 21 mph 1019.6mb 74f
5:06pm 13 20 mph 1019.5mb 74f
5:00pm 14 21 mph 1019.6mb 74f
4:54pm 13 18 mph 1019.7mb 74f
4:48pm 13 18 mph 1019.7mb 74f
4:42pm 13 17 mph 1019.8mb 74f
4:36pm 11 17 mph 1019.8mb 74f
4:30pm 11 16 mph 1019.9mb 74f
4:24pm 11 16 mph 1019.9mb 74f
4:18pm 11 20 mph 1019.9mb 74f
4:12pm 13 20 mph 1020mb 74f
4:06pm 13 18 mph 1020.1mb 74f
4:00pm 11 16 mph 1020.1mb 74f
3:00pm 11 17 mph 1020.6mb 74f
2:54pm 13 17 mph 1020.6mb 74f
2:48pm 13 18 mph 1020.7mb 74f
2:42pm 11 17 mph 1020.8mb 74f
2:36pm 14 21 mph 1021mb 74f
2:30pm 14 18 mph 1020.9mb 74f
2:24pm 15 21 mph 1020.9mb 74f
2:18pm 14 21 mph 1020.9mb 74f
2:12pm 13 20 mph 1021mb 74f
2:06pm 14 21 mph 1021.1mb 74f
2:00pm 13 20 mph 1021.1mb 74f
1:54pm 14 22 mph 1021.1mb 74f
1:48pm 16 24 mph 1021.3mb 74f
1:42pm 15 21 mph 1021.3mb 74f
1:36pm 15 21 mph 1021.4mb 74f
1:30pm 15 22 mph 1021.5mb 74f
1:24pm 17 23 mph 1021.6mb 74f
1:18pm 16 23 mph 1021.9mb 74f
1:12pm 16 25 mph 1022mb 74f
1:06pm 16 23 mph 1022.2mb 74f
1:00pm 18 23 mph 1022.4mb 74f
12:54pm 16 21 mph 1022.6mb 74f
12:48pm 16 24 mph 1022.7mb 74f
12:42pm 17 23 mph 1022.7mb 74f
12:36pm 15 23 mph 1022.9mb 74f
12:30pm 17 23 mph 1023.1mb 74f
12:24pm 16 22 mph 1023.2mb 74f
12:18pm 15 22 mph 1023.4mb 74f
12:12pm 14 21 mph 1023.4mb 74f
12:06pm 15 22 mph 1023.4mb 74f
12:00pm 15 23 mph 1023.5mb 74f
11:54am 15 21 mph 1023.6mb 74f
11:48am 14 22 mph 1023.6mb 74f
11:42am 16 23 mph 1023.6mb 74f
11:36am 16 22 mph 1023.8mb 74f
11:30am 14 22 mph 1023.9mb 74f
11:24am 15 23 mph 1024mb 74f
11:18am 17 23 mph 1024mb 74f
11:12am 15 23 mph 1024.1mb 74f
11:06am 15 22 mph 1024.2mb 74f
11:00am 15 21 mph 1024.1mb 74f
10:54am 14 21 mph 1024.2mb 74f
10:48am 14 23 mph 1024.2mb 74f
10:42am 14 21 mph 1024.1mb 74f
10:36am 15 23 mph 1024mb 74f
10:30am 14 22 mph 1024.1mb 74f
10:24am 13 20 mph 1024mb 74f
10:18am 14 21 mph 1024mb 74f
10:12am 14 23 mph 1024mb 74f
10:06am 15 23 mph 1024mb 74f
10:00am 15 22 mph 1024mb 74f
9:54am 15 24 mph 1024mb 74f
9:48am 17 23 mph 1023.9mb 74f
9:42am 15 24 mph 1023.9mb 74f
9:36am 14 22 mph 1023.8mb 74f
9:30am 15 23 mph 1023.7mb 74f
9:24am 16 22 mph 1023.7mb 74f
9:18am 13 23 mph 1023.7mb 74f
9:12am 9 23 mph 1023.6mb 74f
9:06am 9 18 mph 1023.6mb 74f
9:00am 9 18 mph 1023.6mb 73f
8:54am 11 21 mph 1023.7mb 73f
8:48am 9 21 mph 1023.7mb 73f
8:42am 9 18 mph 1023.6mb 73f
8:36am 11 23 mph 1023.5mb 73f
8:30am 10 23 mph 1023.5mb 73f
8:24am 9 17 mph 1023.5mb 73f
8:18am 14 22 mph 1023.6mb 73f
8:12am 11 23 mph 1023.6mb 73f
8:06am 14 24 mph 1023.7mb 73f
8:00am 11 22 mph 1023.8mb 73f
7:54am 14 23 mph 1023.8mb 73f
7:48am 14 24 mph 1023.9mb 73f
7:42am 11 22 mph 1023.9mb 73f
7:36am 11 21 mph 1023.9mb 73f
7:30am 10 18 mph 1023.9mb 73f
7:24am 10 17 mph 1023.8mb 73f
7:18am 9 18 mph 1023.9mb 72f
7:12am 8 17 mph 1024mb 73f
7:06am 9 20 mph 1024mb 73f
7:00am 10 20 mph 1024.1mb 73f
6:42am 14 22 mph 1023.9mb 73f
6:36am 13 22 mph 1023.9mb 73f
6:30am 10 18 mph 1024mb 73f
6:24am 9 18 mph 1023.9mb 73f
6:18am 13 20 mph 1023.8mb 73f
6:12am 9 15 mph 1023.8mb 73f
6:06am 9 21 mph 1023.8mb 73f
6:00am 6 15 mph 1023.7mb 73f
5:54am 6 13 mph 1023.7mb 72f
5:48am 7 16 mph 1023.7mb 72f
5:42am 8 16 mph 1023.8mb 72f
5:36am 6 13 mph 1023.7mb 72f
5:30am 7 15 mph 1023.6mb 73f
5:24am 8 15 mph 1023.6mb 73f
5:18am 7 15 mph 1023.6mb 72f
5:12am 7 15 mph 1023.6mb 73f
5:06am 8 16 mph 1023.6mb 73f
5:00am 8 18 mph 1023.6mb 73f
4:42am 7 15 mph 1023.7mb 73f
4:36am 8 18 mph 1023.7mb 73f
4:30am 7 15 mph 1023.7mb 72f
4:24am 11 22 mph 1023.7mb 73f
4:18am 7 15 mph 1023.6mb 72f
4:12am 8 17 mph 1023.7mb 72f
4:06am 9 23 mph 1023.7mb 72f
4:00am 7 17 mph 1023.7mb 72f
3:42am 9 22 mph 1023.8mb 72f
3:36am 8 16 mph 1023.8mb 72f
3:30am 8 22 mph 1023.9mb 72f
3:24am 8 18 mph 1023.8mb 72f
3:18am 8 17 mph 1023.9mb 72f
3:12am 8 17 mph 1023.9mb 72f
3:06am 7 18 mph 1023.9mb 72f
3:00am 10 21 mph 1024mb 72f
2:54am 8 20 mph 1024.1mb 72f
2:48am 6 14 mph 1024.2mb 72f
2:42am 7 16 mph 1024.2mb 72f
2:36am 7 15 mph 1024mb 72f
2:30am 8 20 mph 1024.1mb 72f
2:24am 8 16 mph 1024.2mb 72f
2:18am 8 17 mph 1024.3mb 72f
2:12am 6 13 mph 1024.4mb 72f
2:06am 8 18 mph 1024.4mb 72f
2:00am 9 20 mph 1024.4mb 72f
1:54am 13 22 mph 1024.4mb 72f
1:48am 9 22 mph 1024.5mb 72f
1:42am 10 22 mph 1024.6mb 72f
1:36am 10 21 mph 1024.6mb 72f
1:30am 8 21 mph 1024.6mb 72f
1:24am 10 20 mph 1024.6mb 72f
1:18am 11 24 mph 1024.7mb 72f
1:12am 9 20 mph 1024.7mb 72f
1:06am 8 17 mph 1024.8mb 72f
1:00am 9 21 mph 1024.8mb 72f
12:42am 14 24 mph 1024.9mb 72f
12:36am 9 18 mph 1025.1mb 72f
12:30am 9 22 mph 1025.1mb 72f
12:24am 10 28 mph 1025.2mb 71f
12:18am 18 28 mph 1025.2mb 71f
12:12am 11 24 mph 1025.3mb 71f
12:06am 9 21 mph 1025.4mb 70f
12:00am 10 21 mph 1025.4mb 70f
Tue 01/22 11:42pm 14 25 mph 1025.6mb 71f
11:36pm 13 26 mph 1025.8mb 72f
11:30pm 14 24 mph 1025.8mb 72f
11:24pm 15 23 mph 1025.9mb 72f
11:18pm 17 23 mph 1025.9mb 72f
11:12pm 11 23 mph 1026mb 72f
11:06pm 16 23 mph 1026mb 73f
11:00pm 13 23 mph 1026.1mb 72f
10:54pm 13 21 mph 1026.1mb 72f
10:48pm 16 26 mph 1026.1mb 72f
10:42pm 17 25 mph 1026.1mb 73f
10:36pm 16 26 mph 1026.1mb 72f
10:30pm 10 21 mph 1026.3mb 72f
10:24pm 13 22 mph 1026.3mb 72f
10:18pm 10 23 mph 1026.3mb 72f
10:12pm 15 23 mph 1026.3mb 72f
10:06pm 20 28 mph 1026.2mb 72f
10:00pm 16 25 mph 1026.2mb 72f
9:54pm 14 25 mph 1026.2mb 72f
9:48pm 10 21 mph 1026.3mb 72f
9:42pm 10 23 mph 1026.3mb 72f
9:36pm 16 24 mph 1026.2mb 72f
9:30pm 10 20 mph 1026.3mb 72f
9:24pm 10 21 mph 1026.3mb 72f
9:18pm 14 24 mph 1026.3mb 72f
9:12pm 16 24 mph 1026.3mb 72f
9:06pm 13 25 mph 1026.3mb 72f
9:00pm 17 25 mph 1026.2mb 73f
8:54pm 16 23 mph 1026.1mb 72f
8:48pm 17 25 mph 1026.2mb 72f
8:42pm 18 25 mph 1026.2mb 72f
8:36pm 18 24 mph 1026.1mb 72f
8:30pm 18 24 mph 1026.2mb 72f
8:24pm 18 25 mph 1026.2mb 72f
8:18pm 18 26 mph 1026.2mb 72f
8:12pm 17 24 mph 1026.2mb 72f
8:06pm 17 25 mph 1026.2mb 72f
8:00pm 18 26 mph 1026.1mb 72f
7:54pm 17 25 mph 1026.1mb 72f
7:48pm 20 25 mph 1025.9mb 72f
7:42pm 20 28 mph 1025.9mb 72f
7:36pm 18 26 mph 1025.9mb 72f
7:30pm 18 26 mph 1025.9mb 72f
7:24pm 18 26 mph 1025.8mb 72f
7:18pm 20 26 mph 1025.8mb 72f
7:12pm 18 28 mph 1025.9mb 71f
7:06pm 20 30 mph 1025.8mb 72f
7:00pm 18 25 mph 1025.8mb 72f
6:54pm 17 23 mph 1025.8mb 72f
6:48pm 18 25 mph 1025.8mb 72f
6:42pm 17 28 mph 1025.8mb 72f
6:36pm 18 24 mph 1025.8mb 72f
6:30pm 17 24 mph 1025.9mb 72f
6:24pm 17 24 mph 1025.9mb 72f
6:18pm 16 23 mph 1025.9mb 72f
6:12pm 18 24 mph 1025.9mb 72f
6:06pm 18 25 mph 1025.9mb 72f
6:00pm 17 24 mph 1025.9mb 72f
5:54pm 17 24 mph 1025.9mb 72f
5:48pm 17 24 mph 1026mb 72f
5:42pm 16 23 mph 1026mb 72f
5:36pm 17 24 mph 1025.9mb 72f
5:30pm 17 23 mph 1025.9mb 72f
5:24pm 16 23 mph 1026mb 72f
5:18pm 16 22 mph 1026mb 72f
5:12pm 17 23 mph 1026.1mb 72f
5:06pm 16 23 mph 1026.1mb 72f
5:00pm 16 23 mph 1026.1mb 72f
4:54pm 16 21 mph 1026.2mb 72f
4:48pm 15 22 mph 1026.2mb 73f
4:42pm 16 22 mph 1026.2mb 73f
4:36pm 15 22 mph 1026.2mb 73f
4:30pm 15 21 mph 1026.2mb 73f
4:24pm 14 20 mph 1026.2mb 73f
4:18pm 15 21 mph 1026.1mb 72f
4:12pm 15 24 mph 1026.2mb 72f
4:06pm 18 26 mph 1026.1mb 72f
4:00pm 15 24 mph 1026.2mb 72f
3:54pm 16 24 mph 1026.1mb 72f
3:48pm 17 26 mph 1026.1mb 72f
3:42pm 16 21 mph 1026.2mb 72f
3:36pm 16 22 mph 1026.2mb 72f
3:30pm 16 23 mph 1026.3mb 72f
3:24pm 16 24 mph 1026.2mb 73f
3:18pm 16 21 mph 1026.2mb 72f
3:12pm 16 24 mph 1026.2mb 72f
3:06pm 16 24 mph 1026.2mb 72f
3:00pm 17 23 mph 1026.3mb 72f
2:54pm 17 24 mph 1026.2mb 72f
2:48pm 16 23 mph 1026.1mb 72f
2:42pm 16 23 mph 1026.2mb 72f
2:36pm 20 29 mph 1026.1mb 72f
2:30pm 20 29 mph 1026.2mb 72f
2:24pm 17 30 mph 1026.3mb 72f
2:18pm 16 21 mph 1026.4mb 73f
2:12pm 17 25 mph 1026.4mb 72f
2:06pm 16 25 mph 1026.4mb 72f
2:00pm 16 23 mph 1026.4mb 72f
1:54pm 17 26 mph 1026.5mb 72f
1:48pm 17 28 mph 1026.5mb 72f
1:42pm 20 30 mph 1026.6mb 71f
1:36pm 18 28 mph 1026.7mb 72f
1:30pm 16 24 mph 1026.8mb 72f
1:24pm 18 28 mph 1026.9mb 72f
1:18pm 22 30 mph 1026.8mb 71f
1:12pm 20 28 mph 1027mb 71f
1:06pm 22 31 mph 1027mb 71f
1:00pm 21 28 mph 1027mb 71f
12:54pm 21 28 mph 1027.1mb 71f
12:48pm 18 29 mph 1027.3mb 71f
12:42pm 17 23 mph 1027.4mb 72f
12:36pm 18 30 mph 1027.5mb 72f
12:30pm 21 29 mph 1027.5mb 71f
12:24pm 21 29 mph 1027.5mb 71f
12:18pm 21 30 mph 1027.6mb 71f
12:12pm 20 29 mph 1027.6mb 71f
12:06pm 20 30 mph 1027.7mb 72f
12:00pm 18 25 mph 1027.7mb 72f
11:54am 17 29 mph 1027.8mb 72f
11:48am 17 25 mph 1027.8mb 72f
11:42am 20 30 mph 1027.8mb 71f
11:36am 23 30 mph 1027.8mb 71f
11:30am 20 26 mph 1027.9mb 71f
11:24am 15 29 mph 1028mb 72f
11:18am 18 29 mph 1028mb 72f
11:12am 17 26 mph 1028mb 72f
11:06am 16 25 mph 1028.1mb 72f
11:00am 17 23 mph 1028mb 72f
10:54am 16 25 mph 1028mb 72f
10:48am 17 25 mph 1028mb 71f
10:42am 20 28 mph 1028mb 71f
10:36am 20 25 mph 1027.9mb 71f
10:30am 18 26 mph 1028mb 71f
10:24am 18 26 mph 1028mb 71f
10:18am 21 29 mph 1027.9mb 71f
10:12am 16 21 mph 1027.9mb 72f
10:06am 17 23 mph 1027.9mb 72f
10:00am 16 24 mph 1027.8mb 72f
9:54am 17 23 mph 1027.7mb 72f
9:48am 16 22 mph 1027.6mb 72f
9:42am 17 25 mph 1027.5mb 72f
9:36am 17 24 mph 1027.4mb 72f
9:30am 17 23 mph 1027.4mb 72f
9:24am 16 22 mph 1027.3mb 72f
9:18am 17 24 mph 1027.2mb 72f
9:12am 18 26 mph 1027.2mb 72f
9:06am 18 26 mph 1027.2mb 72f
9:00am 18 24 mph 1027mb 72f
8:54am 18 25 mph 1027mb 72f
8:48am 17 25 mph 1026.9mb 71f
8:42am 17 24 mph 1026.9mb 71f
8:36am 17 28 mph 1026.8mb 71f
8:30am 22 29 mph 1026.6mb 71f
8:24am 22 30 mph 1026.5mb 71f
8:18am 18 26 mph 1026.5mb 71f
8:12am 18 28 mph 1026.5mb 71f
8:06am 21 28 mph 1026.3mb 71f
8:00am 21 29 mph 1026.3mb 70f
7:54am 20 30 mph 1026.3mb 70f
7:48am 23 30 mph 1026.1mb 71f
7:42am 18 28 mph 1026.1mb 71f
7:36am 16 26 mph 1026.1mb 71f
7:30am 18 26 mph 1026mb 71f
7:24am 16 23 mph 1026mb 71f
7:18am 16 22 mph 1026mb 71f
7:12am 15 20 mph 1025.9mb 71f
7:06am 15 21 mph 1025.9mb 71f
7:00am 15 23 mph 1025.8mb 71f
6:54am 16 23 mph 1025.7mb 71f
6:48am 18 26 mph 1025.6mb 71f
6:42am 17 25 mph 1025.5mb 71f
6:36am 16 23 mph 1025.5mb 71f
6:30am 18 25 mph 1025.4mb 71f
6:24am 16 23 mph 1025.4mb 71f
6:18am 17 28 mph 1025.3mb 71f
6:12am 17 24 mph 1025.3mb 71f
6:06am 17 26 mph 1025.2mb 71f
6:00am 17 23 mph 1025.2mb 71f
5:54am 15 22 mph 1025.2mb 71f
5:48am 16 26 mph 1025.1mb 71f
5:42am 20 28 mph 1024.9mb 71f
5:36am 15 25 mph 1025mb 71f
5:30am 18 31 mph 1024.8mb 71f
5:24am 22 31 mph 1024.7mb 71f
5:18am 21 25 mph 1024.8mb 71f
5:12am 18 24 mph 1024.7mb 70f
5:06am 18 24 mph 1024.9mb 70f
5:00am 18 26 mph 1024.8mb 70f
4:54am 20 26 mph 1024.9mb 70f
4:48am 22 26 mph 1024.8mb 70f
4:42am 18 25 mph 1024.9mb 70f
4:36am 16 24 mph 1024.9mb 70f
4:30am 18 24 mph 1024.9mb 70f
4:24am 16 23 mph 1024.9mb 70f
4:18am 17 26 mph 1024.9mb 70f
4:12am 18 25 mph 1024.9mb 70f
4:06am 18 26 mph 1024.9mb 70f
4:00am 17 24 mph 1024.9mb 70f
3:54am 17 25 mph 1024.9mb 70f
3:48am 17 25 mph 1024.8mb 70f
3:42am 17 24 mph 1024.9mb 70f
3:36am 18 26 mph 1024.8mb 70f
3:30am 16 24 mph 1024.9mb 70f
3:24am 16 28 mph 1024.9mb 70f
3:18am 17 28 mph 1024.9mb 70f
3:12am 16 25 mph 1025mb 70f
3:06am 18 25 mph 1025mb 70f
3:00am 14 29 mph 1025.1mb 70f
2:54am 17 29 mph 1025.1mb 70f
2:48am 17 29 mph 1025.1mb 70f
2:42am 17 28 mph 1025.1mb 70f
2:36am 16 22 mph 1025.2mb 70f
2:30am 17 25 mph 1025.2mb 70f
2:24am 17 24 mph 1025.1mb 69f
2:18am 14 23 mph 1025.2mb 70f
2:12am 18 24 mph 1025.2mb 70f
2:06am 15 23 mph 1025.4mb 69f
2:00am 15 23 mph 1025.4mb 70f
1:54am 17 25 mph 1025.4mb 70f
1:48am 17 26 mph 1025.4mb 69f
1:42am 15 24 mph 1025.5mb 70f
1:36am 16 24 mph 1025.5mb 70f
1:30am 14 21 mph 1025.5mb 69f
1:24am 14 20 mph 1025.6mb 69f
1:18am 15 24 mph 1025.6mb 70f
1:12am 17 24 mph 1025.6mb 70f
1:06am 14 20 mph 1025.7mb 70f
1:00am 14 22 mph 1025.7mb 69f
12:54am 15 23 mph 1025.6mb 69f
12:48am 16 23 mph 1025.6mb 70f
12:42am 16 24 mph 1025.6mb 70f
12:36am 16 22 mph 1025.7mb 70f
12:30am 18 26 mph 1025.5mb 70f
12:24am 18 28 mph 1025.6mb 70f
12:18am 21 31 mph 1025.5mb 70f
12:12am 18 25 mph 1025.6mb 70f
12:06am 18 24 mph 1025.7mb 70f
12:00am 18 28 mph 1025.7mb 70f
Mon 01/21 11:54pm 15 22 mph 1025.7mb 70f
11:48pm 16 23 mph 1025.8mb 70f
11:42pm 20 28 mph 1025.7mb 70f
11:36pm 20 26 mph 1025.8mb 70f
11:30pm 21 28 mph 1025.7mb 70f
11:24pm 22 28 mph 1025.7mb 70f
11:18pm 20 26 mph 1025.7mb 70f
11:12pm 21 25 mph 1025.7mb 70f
11:06pm 22 26 mph 1025.7mb 70f
11:00pm 22 26 mph 1025.6mb 70f
10:54pm 22 26 mph 1025.6mb 70f
10:48pm 22 26 mph 1025.6mb 70f
10:42pm 18 26 mph 1025.7mb 70f
10:36pm 17 26 mph 1025.7mb 70f
10:30pm 18 25 mph 1025.7mb 70f
10:24pm 20 24 mph 1025.7mb 70f
10:18pm 21 25 mph 1025.7mb 70f
10:12pm 21 25 mph 1025.7mb 70f
10:06pm 21 25 mph 1025.6mb 70f
10:00pm 21 26 mph 1025.6mb 70f
9:54pm 21 26 mph 1025.5mb 70f
9:48pm 18 25 mph 1025.4mb 71f
9:42pm 20 25 mph 1025.4mb 71f
9:36pm 20 24 mph 1025.4mb 70f
9:30pm 18 24 mph 1025.5mb 70f
9:24pm 20 25 mph 1025.3mb 70f
9:18pm 18 24 mph 1025.3mb 71f
9:12pm 17 24 mph 1025.3mb 70f
9:06pm 17 24 mph 1025.3mb 70f
9:00pm 17 23 mph 1025.4mb 70f
8:54pm 20 23 mph 1025.3mb 70f
8:48pm 18 24 mph 1025.2mb 70f
8:42pm 16 23 mph 1025.3mb 70f
8:36pm 17 22 mph 1025.2mb 70f
8:30pm 17 24 mph 1025.3mb 70f
8:24pm 17 24 mph 1025.2mb 69f
8:18pm 16 24 mph 1025.2mb 69f
8:12pm 11 22 mph 1025.2mb 67f
8:06pm 6 11 mph 1025.2mb 65f
8:00pm 5 11 mph 1025.2mb 65f
7:54pm 10 17 mph 1025.1mb 66f
7:48pm 11 17 mph 1025mb 65f
7:42pm 10 13 mph 1025mb 66f
7:36pm 10 14 mph 1024.9mb 66f
7:30pm 9 14 mph 1024.9mb 66f
7:24pm 7 11 mph 1024.8mb 66f
7:18pm 8 13 mph 1024.6mb 66f
7:12pm 11 17 mph 1024.5mb 66f
7:06pm 9 14 mph 1024.5mb 66f
7:00pm 9 14 mph 1024.5mb 66f
6:54pm 9 14 mph 1024.4mb 66f
6:48pm 9 14 mph 1024.4mb 66f
6:42pm 9 15 mph 1024.3mb 66f
6:36pm 10 16 mph 1024.3mb 66f
6:30pm 9 14 mph 1024.2mb 67f
6:24pm 11 16 mph 1024.2mb 67f
6:18pm 11 17 mph 1024.2mb 67f
6:12pm 10 15 mph 1024.1mb 67f
6:06pm 10 15 mph 1024.1mb 67f
6:00pm 10 15 mph 1024mb 67f
5:54pm 8 13 mph 1023.9mb 67f
5:48pm 8 13 mph 1023.9mb 67f
5:42pm 10 16 mph 1023.8mb 67f
5:36pm 7 15 mph 1023.8mb 67f
5:30pm 7 13 mph 1023.7mb 67f
5:24pm 7 14 mph 1023.6mb 67f
5:18pm 6 11 mph 1023.6mb 67f
5:12pm 7 13 mph 1023.6mb 67f
5:06pm 6 13 mph 1023.5mb 67f
5:00pm 5 13 mph 1023.5mb 67f
4:54pm 7 11 mph 1023.4mb 67f
4:48pm 6 14 mph 1023.3mb 67f
4:42pm 7 14 mph 1023.4mb 67f
4:36pm 8 14 mph 1023.4mb 67f
4:30pm 6 15 mph 1023.5mb 67f
4:24pm 7 11 mph 1023.4mb 67f
4:18pm 6 10 mph 1023.3mb 67f
4:12pm 5 11 mph 1023.2mb 66f
4:06pm 6 14 mph 1023.3mb 66f
4:00pm 9 16 mph 1023.3mb 66f
3:54pm 5 11 mph 1023.3mb 66f
3:48pm 9 16 mph 1023.2mb 66f
3:42pm 9 21 mph 1023.2mb 66f
3:36pm 6 17 mph 1023.3mb 66f
3:30pm 7 16 mph 1023.4mb 66f
3:24pm 6 16 mph 1023.4mb 66f
3:18pm 9 17 mph 1023.3mb 66f
3:12pm 8 21 mph 1023.3mb 66f
3:06pm 7 17 mph 1023.4mb 66f
3:00pm 7 16 mph 1023.4mb 66f
1:18pm 7 14 mph 1023.5mb 64f
1:12pm 6 11 mph 1023.6mb 64f
1:06pm 7 15 mph 1023.8mb 63f
1:00pm 7 11 mph 1023.9mb 63f
6:24am 8 10 mph 1022.1mb 47f
6:18am 10 15 mph 1021.9mb 47f
6:12am 11 16 mph 1021.8mb 47f
6:06am 13 16 mph 1021.8mb 48f
6:00am 10 16 mph 1021.8mb 47f
5:54am 11 16 mph 1021.8mb 47f
5:48am 14 22 mph 1021.7mb 48f
5:42am 13 22 mph 1021.7mb 48f
5:36am 14 18 mph 1021.6mb 47f
5:30am 15 21 mph 1021.5mb 48f
5:24am 14 20 mph 1021.4mb 48f
5:18am 13 20 mph 1021.5mb 48f
5:12am 11 20 mph 1021.7mb 48f
5:06am 14 20 mph 1021.6mb 48f
5:00am 13 18 mph 1021.6mb 48f
4:54am 11 15 mph 1021.6mb 49f
4:48am 11 17 mph 1021.6mb 49f
4:42am 10 16 mph 1021.6mb 49f
4:36am 10 15 mph 1021.7mb 49f
4:30am 9 15 mph 1021.7mb 49f
4:24am 10 16 mph 1021.8mb 49f
4:18am 10 16 mph 1021.7mb 49f
4:12am 13 17 mph 1021.6mb 49f
4:06am 14 20 mph 1021.7mb 49f
4:00am 14 22 mph 1021.6mb 50f
3:54am 16 22 mph 1021.6mb 50f
3:48am 13 18 mph 1021.5mb 50f
3:42am 11 17 mph 1021.3mb 50f
3:36am 10 18 mph 1021.3mb 50f
3:30am 13 18 mph 1021.2mb 51f
3:24am 11 17 mph 1021.2mb 51f
3:18am 13 21 mph 1021.3mb 51f
3:12am 13 21 mph 1021.2mb 51f
3:06am 14 21 mph 1021.3mb 51f
3:00am 13 18 mph 1021.3mb 51f
2:54am 10 16 mph 1021.3mb 52f
2:48am 13 17 mph 1021.2mb 52f
2:42am 13 18 mph 1021.2mb 52f
2:36am 13 21 mph 1021.2mb 53f
2:30am 15 22 mph 1021.2mb 52f
2:24am 14 21 mph 1021.2mb 52f
2:18am 14 20 mph 1021.1mb 52f
2:12am 14 21 mph 1021.2mb 52f
2:06am 13 21 mph 1021.1mb 52f
2:00am 15 25 mph 1021mb 52f
1:54am 13 23 mph 1021.1mb 52f
1:48am 15 23 mph 1021.1mb 52f
1:42am 14 22 mph 1021mb 52f
1:36am 15 23 mph 1021mb 52f
1:30am 16 22 mph 1021mb 52f
1:24am 16 23 mph 1021mb 53f
1:18am 18 28 mph 1020.9mb 53f
1:12am 20 24 mph 1020.9mb 53f
1:06am 18 24 mph 1020.9mb 53f
1:00am 20 24 mph 1020.8mb 53f
12:54am 18 24 mph 1020.8mb 53f
12:48am 20 26 mph 1020.7mb 53f
12:42am 18 25 mph 1020.7mb 53f
12:36am 18 24 mph 1020.6mb 54f
12:30am 16 22 mph 1020.7mb 54f
12:24am 17 24 mph 1020.6mb 53f
12:18am 17 22 mph 1020.6mb 54f
12:12am 16 22 mph 1020.5mb 54f
12:06am 17 22 mph 1020.4mb 54f
12:00am 15 21 mph 1020.4mb 54f
Sun 01/20 11:54pm 15 20 mph 1020.4mb 55f
11:48pm 15 22 mph 1020.3mb 55f
11:42pm 17 25 mph 1020.2mb 55f
11:36pm 21 28 mph 1020.2mb 55f
11:30pm 20 30 mph 1020.3mb 55f
11:24pm 22 30 mph 1020.1mb 56f
11:18pm 18 26 mph 1019.9mb 56f
11:12pm 21 32 mph 1019.8mb 56f
11:06pm 18 28 mph 1019.8mb 57f
11:00pm 18 28 mph 1019.9mb 57f
10:54pm 18 26 mph 1019.7mb 57f
10:48pm 18 25 mph 1019.6mb 57f
10:42pm 18 23 mph 1019.5mb 58f
10:36pm 20 26 mph 1019.4mb 58f
10:30pm 16 24 mph 1019.3mb 58f
10:24pm 17 22 mph 1019.1mb 58f
10:18pm 17 24 mph 1019mb 58f
10:12pm 15 21 mph 1018.8mb 59f
10:06pm 16 23 mph 1018.7mb 59f
10:00pm 15 20 mph 1018.7mb 59f
9:54pm 17 25 mph 1018.6mb 59f
9:48pm 16 21 mph 1018.6mb 59f
9:42pm 16 21 mph 1018.6mb 59f
9:36pm 16 22 mph 1018.6mb 60f
9:30pm 18 25 mph 1018.5mb 60f
9:24pm 15 20 mph 1018.6mb 60f
9:18pm 16 24 mph 1018.4mb 60f
9:12pm 16 21 mph 1018.4mb 60f
9:06pm 17 25 mph 1018.4mb 60f
9:00pm 18 28 mph 1018.2mb 61f
8:54pm 18 24 mph 1018.2mb 61f
8:48pm 17 22 mph 1018mb 61f
8:42pm 16 22 mph 1018mb 62f
8:36pm 17 25 mph 1017.9mb 62f
8:30pm 18 25 mph 1017.8mb 62f
8:24pm 17 25 mph 1017.7mb 62f
8:18pm 18 24 mph 1017.6mb 62f
8:12pm 20 25 mph 1017.5mb 62f
8:06pm 15 22 mph 1017.4mb 62f
8:00pm 17 22 mph 1017.3mb 63f
7:54pm 17 24 mph 1017.1mb 63f
7:48pm 16 23 mph 1017.1mb 63f
7:42pm 15 20 mph 1017mb 63f
7:36pm 14 21 mph 1016.9mb 63f
7:30pm 14 20 mph 1016.9mb 64f
7:24pm 15 20 mph 1016.8mb 64f
7:18pm 16 23 mph 1016.7mb 64f
7:12pm 17 23 mph 1016.7mb 64f
7:06pm 18 24 mph 1016.6mb 64f
7:00pm 17 22 mph 1016.5mb 64f
6:54pm 17 25 mph 1016.4mb 65f
6:48pm 17 24 mph 1016.3mb 65f
6:42pm 17 23 mph 1016.1mb 65f
6:36pm 18 25 mph 1016.1mb 65f
6:30pm 16 23 mph 1016mb 66f
6:24pm 17 22 mph 1015.9mb 66f
6:18pm 16 24 mph 1015.7mb 66f
6:12pm 15 22 mph 1015.7mb 66f
6:06pm 14 24 mph 1015.8mb 66f
6:00pm 16 22 mph 1015.6mb 66f
5:54pm 17 24 mph 1015.4mb 66f
5:48pm 18 30 mph 1015.5mb 66f
5:42pm 18 25 mph 1015.4mb 66f
5:36pm 22 33 mph 1015.3mb 66f
5:30pm 20 29 mph 1015.3mb 66f
5:24pm 22 29 mph 1015.2mb 67f
5:18pm 21 30 mph 1015mb 67f
5:12pm 17 24 mph 1014.9mb 68f
5:06pm 20 26 mph 1014.7mb 68f
5:00pm 22 28 mph 1014.6mb 68f
4:54pm 22 28 mph 1014.3mb 69f
4:48pm 22 29 mph 1014.1mb 69f
4:42pm 18 28 mph 1014mb 69f
4:36pm 21 29 mph 1014mb 69f
4:30pm 20 29 mph 1013.9mb 70f
4:24pm 20 29 mph 1013.8mb 70f
4:18pm 21 28 mph 1013.7mb 70f
4:12pm 17 28 mph 1013.7mb 70f
4:06pm 21 28 mph 1013.6mb 70f
4:00pm 21 32 mph 1013.6mb 70f
5:42am 7 13 mph 1010.5mb 74f
5:36am 8 16 mph 1010.7mb 74f
5:30am 9 15 mph 1010.6mb 74f
5:24am 7 16 mph 1010.6mb 74f
5:18am 9 16 mph 1010.6mb 74f
5:12am 10 17 mph 1010.5mb 74f
5:06am 8 16 mph 1010.6mb 74f
5:00am 7 17 mph 1010.7mb 74f
4:54am 8 14 mph 1010.8mb 74f
4:48am 9 18 mph 1010.8mb 74f
4:42am 7 11 mph 1010.9mb 74f
4:36am 8 14 mph 1011mb 74f
4:30am 9 17 mph 1011.1mb 74f
4:24am 10 16 mph 1011.1mb 74f
4:18am 10 20 mph 1011.2mb 74f
4:12am 9 15 mph 1011.1mb 74f
4:06am 9 15 mph 1011.1mb 73f
4:00am 7 13 mph 1011.2mb 73f
3:54am 9 15 mph 1011.2mb 73f
3:48am 9 15 mph 1011.2mb 73f
3:42am 8 13 mph 1011.3mb 73f
3:36am 6 10 mph 1011.3mb 73f
3:30am 7 11 mph 1011.3mb 73f
3:24am 6 8 mph 1011.4mb 73f
3:18am 6 9 mph 1011.6mb 73f
3:12am 6 9 mph 1011.7mb 73f
3:06am 6 9 mph 1011.9mb 73f
3:00am 6 10 mph 1012mb 73f
2:54am 6 10 mph 1012mb 73f
2:48am 7 11 mph 1012.1mb 73f
2:42am 7 13 mph 1012.1mb 73f
2:36am 8 17 mph 1012.2mb 73f